Time;durP1;ratioP1;P1;durP2;ratioP2;P2;SDS_P1;SDS_P2;PMS_P1;PMS_P2;Temp;Humidity;BMP_temperature;BMP_pressure;BME280_temperature;BME280_humidity;BME280_pressure;Samples;Min_cycle;Max_cycle;Signal;HPM_P1;HPM_P2
2021/08/24 00:01:18;;;;;;;6.80;3.10;;;;;;;-145.18;100.00;60484.78;5081638;28;20409;-66
2021/08/24 00:03:44;;;;;;;7.07;2.60;;;;;;;-145.18;100.00;60484.78;5081903;28;20055;-66
2021/08/24 00:06:11;;;;;;;6.30;2.77;;;;;;;-145.18;100.00;60484.78;5071717;28;20088;-66
2021/08/24 00:08:37;;;;;;;7.00;3.27;;;;;;;-145.18;100.00;60484.78;5082271;28;20043;-66
2021/08/24 00:11:03;;;;;;;8.07;3.10;;;;;;;-145.18;100.00;60484.78;5081677;28;20400;-66
2021/08/24 00:13:29;;;;;;;7.37;3.00;;;;;;;-145.18;100.00;60484.78;5081045;28;20055;-66
2021/08/24 00:15:56;;;;;;;6.37;3.00;;;;;;;-145.18;100.00;60484.78;5072858;28;20486;-66
2021/08/24 00:18:22;;;;;;;6.17;3.20;;;;;;;-145.18;100.00;60484.78;5082253;28;20032;-66
2021/08/24 00:20:50;;;;;;;6.63;3.20;;;;;;;-145.18;100.00;60484.78;5081161;28;20093;-66
2021/08/24 00:23:18;;;;;;;7.73;3.23;;;;;;;-145.18;100.00;60484.78;5082612;28;20156;-66
2021/08/24 00:25:46;;;;;;;5.83;3.30;;;;;;;-145.18;100.00;60484.78;5080093;28;20748;-66
2021/08/24 00:28:11;;;;;;;6.90;3.40;;;;;;;-145.18;100.00;60484.78;5081892;28;20063;-66
2021/08/24 00:30:38;;;;;;;7.33;3.33;;;;;;;-145.18;100.00;60484.78;5076829;28;20527;-66
2021/08/24 00:33:14;;;;;;;5.93;2.90;;;;;;;-145.18;100.00;60484.78;5082181;28;20453;-66
2021/08/24 00:35:41;;;;;;;12.03;4.10;;;;;;;-145.18;100.00;60484.78;5080931;28;20050;-66
2021/08/24 00:38:09;;;;;;;8.40;3.83;;;;;;;-145.18;100.00;60484.78;5079974;28;20042;-66
2021/08/24 00:40:35;;;;;;;8.70;3.37;;;;;;;-145.18;100.00;60484.78;5081716;28;20036;-66
2021/08/24 00:43:00;;;;;;;8.87;4.10;;;;;;;-145.18;100.00;60484.78;5081878;28;20119;-66
2021/08/24 00:45:26;;;;;;;8.90;3.80;;;;;;;-145.18;100.00;60484.78;5079036;28;20097;-66
2021/08/24 00:47:52;;;;;;;11.00;4.13;;;;;;;-145.18;100.00;60484.78;5080257;28;20035;-66
2021/08/24 00:50:33;;;;;;;8.93;3.93;;;;;;;-145.18;100.00;60484.78;5076567;28;20024;-66
2021/08/24 00:53:09;;;;;;;9.23;4.10;;;;;;;-145.18;100.00;60484.78;5074326;28;20424;-66
2021/08/24 00:55:35;;;;;;;9.10;4.60;;;;;;;-145.18;100.00;60484.78;5073118;28;20023;-66
2021/08/24 00:58:06;;;;;;;12.30;4.40;;;;;;;-145.18;100.00;60484.78;5079283;28;20166;-66
2021/08/24 01:00:33;;;;;;;10.53;4.47;;;;;;;-145.18;100.00;60484.78;5078722;28;20409;-66
2021/08/24 01:03:05;;;;;;;11.43;4.80;;;;;;;-145.18;100.00;60484.78;5079901;28;20032;-66
2021/08/24 01:05:32;;;;;;;9.88;3.85;;;;;;;-145.18;100.00;60484.78;5076645;28;20035;-66
2021/08/24 01:08:42;;;;;;;9.53;4.40;;;;;;;-145.18;100.00;60484.78;5081774;28;20024;-66
2021/08/24 01:11:23;;;;;;;9.30;4.50;;;;;;;-145.18;100.00;60484.78;5051456;28;20719;-66
2021/08/24 01:14:38;;;;;;;10.45;4.53;;;;;;;-145.18;100.00;60484.78;5076161;28;20091;-66
2021/08/24 01:17:28;;;;;;;15.57;5.50;;;;;;;-145.18;100.00;60484.78;4949810;28;20050;-66
2021/08/24 01:20:52;;;;;;;13.07;4.60;;;;;;;-145.18;100.00;60484.78;4918012;29;20172;-66
2021/08/24 01:23:52;;;;;;;12.30;5.10;;;;;;;-145.18;100.00;60484.78;4894250;29;20115;-66
2021/08/24 01:26:39;;;;;;;10.67;4.80;;;;;;;-145.18;100.00;60484.78;4904133;29;20063;-66
2021/08/24 01:29:43;;;;;;;13.70;5.07;;;;;;;-145.18;100.00;60484.78;4898360;29;20043;-66
2021/08/24 01:32:39;;;;;;;11.33;4.87;;;;;;;-145.18;100.00;60484.78;4885884;29;20124;-66
2021/08/24 01:35:45;;;;;;;10.60;4.83;;;;;;;-145.18;100.00;60484.78;4860062;29;20047;-66
2021/08/24 01:38:29;;;;;;;13.13;4.97;;;;;;;-145.18;100.00;60484.78;4875552;29;20773;-66
2021/08/24 01:41:24;;;;;;;17.80;5.80;;;;;;;-145.18;100.00;60484.78;4885728;29;20072;-66
2021/08/24 01:44:14;;;;;;;13.30;5.67;;;;;;;-145.18;100.00;60484.78;4864652;29;20135;-66
2021/08/24 01:47:17;;;;;;;15.10;6.00;;;;;;;-145.18;100.00;60484.78;4885180;29;20188;-66
2021/08/24 01:49:51;;;;;;;16.90;6.43;;;;;;;-145.18;100.00;60484.78;4886595;29;20040;-66
2021/08/24 01:52:25;;;;;;;16.33;6.50;;;;;;;-145.18;100.00;60484.78;4898637;29;20055;-66
2021/08/24 01:54:57;;;;;;;16.53;6.07;;;;;;;-145.18;100.00;60484.78;4941765;29;20031;-66
2021/08/24 01:57:30;;;;;;;15.50;6.47;;;;;;;-145.18;100.00;60484.78;4982044;28;20042;-66
2021/08/24 02:00:00;;;;;;;15.17;5.73;;;;;;;-145.18;100.00;60484.78;5001358;28;20069;-66
2021/08/24 02:02:31;;;;;;;25.30;6.47;;;;;;;-145.18;100.00;60484.78;5001135;28;20651;-66
2021/08/24 02:05:04;;;;;;;21.42;6.80;;;;;;;-145.18;100.00;60484.78;4996348;28;20034;-66
2021/08/24 02:07:33;;;;;;;17.40;6.13;;;;;;;-145.18;100.00;60484.78;5045165;28;20089;-66
2021/08/24 02:10:06;;;;;;;20.90;6.27;;;;;;;-145.18;100.00;60484.78;5084205;28;20040;-66
2021/08/24 02:12:35;;;;;;;20.10;6.53;;;;;;;-145.18;100.00;60484.78;5075039;28;20020;-66
2021/08/24 02:15:02;;;;;;;18.03;6.57;;;;;;;-145.18;100.00;60484.78;5076061;28;20038;-66
2021/08/24 02:17:31;;;;;;;20.50;6.80;;;;;;;-145.18;100.00;60484.78;5078062;28;20024;-66
2021/08/24 02:20:15;;;;;;;16.43;6.10;;;;;;;-145.18;100.00;60484.78;5082077;28;20107;-66
2021/08/24 02:22:44;;;;;;;22.43;6.80;;;;;;;-145.18;100.00;60484.78;5083404;28;20028;-66
2021/08/24 02:25:21;;;;;;;19.67;6.60;;;;;;;-145.18;100.00;60484.78;5082852;28;20029;-66
2021/08/24 02:27:54;;;;;;;19.10;7.00;;;;;;;-145.18;100.00;60484.78;5080168;28;20027;-66
2021/08/24 02:30:19;;;;;;;;;;;;;;;-145.18;100.00;60484.78;5083944;28;20012;-66
2021/08/24 02:32:50;;;;;;;14.77;5.60;;;;;;;-145.18;100.00;60484.78;5081999;28;19918;-66
2021/08/24 02:35:37;;;;;;;15.03;5.93;;;;;;;-145.18;100.00;60484.78;5075128;28;20044;-66
2021/08/24 02:38:17;;;;;;;18.83;6.40;;;;;;;-145.18;100.00;60484.78;5083686;28;20474;-66
2021/08/24 02:40:52;;;;;;;19.00;6.90;;;;;;;-145.18;100.00;60484.78;5080235;28;20051;-66
2021/08/24 02:43:27;;;;;;;24.13;7.93;;;;;;;-145.18;100.00;60484.78;5074737;28;20514;-66
2021/08/24 02:46:01;;;;;;;22.13;7.60;;;;;;;-145.18;100.00;60484.78;5079960;28;20016;-66
2021/08/24 02:48:27;;;;;;;18.77;6.97;;;;;;;-145.18;100.00;60484.78;5078528;28;20035;-66
2021/08/24 02:50:54;;;;;;;22.03;7.30;;;;;;;-145.18;100.00;60484.78;5081282;28;20504;-66
2021/08/24 02:53:24;;;;;;;20.67;6.77;;;;;;;-145.18;100.00;60484.78;5082438;28;20427;-66
2021/08/24 02:55:50;;;;;;;22.10;7.47;;;;;;;-145.18;100.00;60484.78;5082166;28;20062;-66
2021/08/24 02:58:16;;;;;;;17.70;7.20;;;;;;;-145.18;100.00;60484.78;5082295;28;20714;-66
2021/08/24 03:00:42;;;;;;;21.07;7.60;;;;;;;-145.18;100.00;60484.78;5080472;28;20107;-66
2021/08/24 03:03:08;;;;;;;17.80;6.63;;;;;;;-145.18;100.00;60484.78;5083216;28;20048;-66
2021/08/24 03:05:33;;;;;;;20.57;7.03;;;;;;;-145.18;100.00;60484.78;5074835;28;20054;-66
2021/08/24 03:08:00;;;;;;;18.93;6.40;;;;;;;-145.18;100.00;60484.78;5082520;28;20026;-66
2021/08/24 03:10:30;;;;;;;18.70;7.07;;;;;;;-145.18;100.00;60484.78;5080420;28;20049;-66
2021/08/24 03:13:53;;;;;;;19.47;6.97;;;;;;;-145.18;100.00;60484.78;5080938;28;20031;-65
2021/08/24 03:16:26;;;;;;;18.67;6.57;;;;;;;-145.18;100.00;60484.78;5001431;28;20048;-66
2021/08/24 03:18:57;;;;;;;17.50;6.80;;;;;;;-145.18;100.00;60484.78;5000617;28;20038;-66
2021/08/24 03:21:26;;;;;;;21.77;7.30;;;;;;;-145.18;100.00;60484.78;5001600;28;20533;-66
2021/08/24 03:23:53;;;;;;;18.63;7.20;;;;;;;-145.18;100.00;60484.78;5001011;28;20033;-66
2021/08/24 03:26:22;;;;;;;21.73;8.00;;;;;;;-145.18;100.00;60484.78;5000022;28;20033;-66
2021/08/24 03:28:48;;;;;;;20.27;7.23;;;;;;;-145.18;100.00;60484.78;5013435;28;20040;-66
2021/08/24 03:31:16;;;;;;;19.83;7.47;;;;;;;-145.18;100.00;60484.78;5002859;28;20025;-66
2021/08/24 03:33:42;;;;;;;17.17;7.13;;;;;;;-145.18;100.00;60484.78;5000945;28;20034;-66
2021/08/24 03:36:07;;;;;;;19.20;6.70;;;;;;;-145.18;100.00;60484.78;5002731;28;20030;-66
2021/08/24 03:38:33;;;;;;;17.53;7.50;;;;;;;-145.18;100.00;60484.78;5008125;28;20065;-66
2021/08/24 03:41:02;;;;;;;18.17;7.20;;;;;;;-145.18;100.00;60484.78;5002073;28;20042;-66
2021/08/24 03:43:28;;;;;;;16.97;6.57;;;;;;;-145.18;100.00;60484.78;5000988;28;20418;-66
2021/08/24 03:45:53;;;;;;;20.77;7.30;;;;;;;-145.18;100.00;60484.78;5000135;28;20034;-66
2021/08/24 03:48:19;;;;;;;19.60;7.50;;;;;;;-145.18;100.00;60484.78;5082117;28;20036;-66
2021/08/24 03:50:44;;;;;;;16.70;7.03;;;;;;;-145.18;100.00;60484.78;5077905;28;20491;-66
2021/08/24 03:53:10;;;;;;;16.03;7.40;;;;;;;-145.18;100.00;60484.78;5081851;28;20043;-67
2021/08/24 03:55:35;;;;;;;21.27;7.53;;;;;;;-145.18;100.00;60484.78;5076808;28;20024;-67
2021/08/24 03:58:01;;;;;;;17.40;8.00;;;;;;;-145.18;100.00;60484.78;5080765;28;20070;-67
2021/08/24 04:00:26;;;;;;;19.37;7.83;;;;;;;-145.18;100.00;60484.78;5081664;28;20528;-67
2021/08/24 04:02:52;;;;;;;20.93;7.57;;;;;;;-145.18;100.00;60484.78;5080627;28;20035;-67
2021/08/24 04:05:17;;;;;;;19.17;7.43;;;;;;;-145.18;100.00;60484.78;5079304;28;20035;-67
2021/08/24 04:07:45;;;;;;;21.53;8.17;;;;;;;-145.18;100.00;60484.78;5081195;28;20117;-67
2021/08/24 04:10:11;;;;;;;20.13;7.43;;;;;;;-145.18;100.00;60484.78;5082311;28;20114;-67
2021/08/24 04:12:37;;;;;;;19.83;7.50;;;;;;;-145.18;100.00;60484.78;5082181;28;20059;-67
2021/08/24 04:15:05;;;;;;;18.97;7.30;;;;;;;-145.18;100.00;60484.78;5079522;28;20511;-67
2021/08/24 04:17:35;;;;;;;21.03;8.13;;;;;;;-145.18;100.00;60484.78;5075341;28;20032;-67
2021/08/24 04:20:08;;;;;;;23.23;7.50;;;;;;;-145.18;100.00;60484.78;5080757;28;20467;-67
2021/08/24 04:22:34;;;;;;;22.70;8.52;;;;;;;-145.18;100.00;60484.78;5074420;28;20052;-67
2021/08/24 04:25:00;;;;;;;24.63;8.20;;;;;;;-145.18;100.00;60484.78;5079543;28;20105;-67
2021/08/24 04:27:25;;;;;;;19.77;8.30;;;;;;;-145.18;100.00;60484.78;5077612;28;20016;-67
2021/08/24 04:29:51;;;;;;;21.77;8.53;;;;;;;-145.18;100.00;60484.78;5074900;28;20480;-67
2021/08/24 04:32:24;;;;;;;23.07;8.73;;;;;;;-145.18;100.00;60484.78;5081880;28;20038;-65
2021/08/24 04:34:49;;;;;;;19.43;7.27;;;;;;;-145.18;100.00;60484.78;5078734;28;20020;-65
2021/08/24 04:37:15;;;;;;;19.03;7.60;;;;;;;-145.18;100.00;60484.78;5081286;28;20051;-65
2021/08/24 04:39:40;;;;;;;15.87;7.40;;;;;;;-145.18;100.00;60484.78;5077936;28;20043;-65
2021/08/24 04:42:06;;;;;;;17.47;7.77;;;;;;;-145.18;100.00;60484.78;5079285;28;20020;-65
2021/08/24 04:44:31;;;;;;;16.13;7.17;;;;;;;-145.18;100.00;60484.78;5070745;28;20024;-65
2021/08/24 04:46:57;;;;;;;15.43;7.20;;;;;;;-145.18;100.00;60484.78;5079275;28;20020;-65
2021/08/24 04:49:23;;;;;;;16.43;7.17;;;;;;;-145.18;100.00;60484.78;5080403;28;20017;-65
2021/08/24 04:51:49;;;;;;;16.80;6.83;;;;;;;-145.18;100.00;60484.78;5077962;28;20036;-65
2021/08/24 04:54:14;;;;;;;16.47;8.00;;;;;;;-145.18;100.00;60484.78;5076963;28;20043;-65
2021/08/24 04:56:40;;;;;;;14.10;6.57;;;;;;;-145.18;100.00;60484.78;5080260;28;20030;-65
2021/08/24 04:59:05;;;;;;;16.13;7.60;;;;;;;-145.18;100.00;60484.78;5083393;28;20514;-65
2021/08/24 05:01:31;;;;;;;14.60;6.40;;;;;;;-145.18;100.00;60484.78;5076863;28;20020;-65
2021/08/24 05:03:56;;;;;;;13.70;6.70;;;;;;;-145.18;100.00;60484.78;5081796;28;20051;-65
2021/08/24 05:06:22;;;;;;;13.63;5.67;;;;;;;-145.18;100.00;60484.78;5083526;28;20020;-65
2021/08/24 05:08:47;;;;;;;10.43;5.63;;;;;;;-145.18;100.00;60484.78;5081105;28;20016;-66
2021/08/24 05:11:13;;;;;;;10.63;4.30;;;;;;;-145.18;100.00;60484.78;5083739;28;20032;-66
2021/08/24 05:13:38;;;;;;;12.23;4.37;;;;;;;-145.18;100.00;60484.78;5083617;28;20030;-66
2021/08/24 05:16:10;;;;;;;8.10;4.30;;;;;;;-145.18;100.00;60484.78;5079033;28;20032;-66
2021/08/24 05:18:36;;;;;;;9.45;3.90;;;;;;;-145.18;100.00;60484.78;5085490;28;20030;-66
2021/08/24 05:21:07;;;;;;;7.33;3.80;;;;;;;-145.18;100.00;60484.78;5084158;28;20365;-65
2021/08/24 05:23:33;;;;;;;11.30;4.67;;;;;;;-145.18;100.00;60484.78;5085809;28;20036;-65
2021/08/24 05:25:59;;;;;;;8.77;4.07;;;;;;;-145.18;100.00;60484.78;5080413;28;20090;-65
2021/08/24 05:28:25;;;;;;;7.93;3.87;;;;;;;-145.18;100.00;60484.78;5084082;28;20526;-65
2021/08/24 05:30:51;;;;;;;7.67;3.57;;;;;;;-145.18;100.00;60484.78;5082534;28;20027;-65
2021/08/24 05:33:17;;;;;;;8.33;3.63;;;;;;;-145.18;100.00;60484.78;5081227;28;20055;-65
2021/08/24 05:35:42;;;;;;;8.53;3.90;;;;;;;-145.18;100.00;60484.78;5081435;28;20036;-65
2021/08/24 05:38:08;;;;;;;9.63;3.53;;;;;;;-145.18;100.00;60484.78;5080059;28;20081;-65
2021/08/24 05:40:33;;;;;;;8.33;3.23;;;;;;;-145.18;100.00;60484.78;5083456;28;20023;-65
2021/08/24 05:42:59;;;;;;;6.97;3.13;;;;;;;-145.18;100.00;60484.78;5085143;28;20031;-65
2021/08/24 05:45:24;;;;;;;6.47;2.90;;;;;;;-145.18;100.00;60484.78;5083482;28;20031;-65
2021/08/24 05:47:50;;;;;;;6.13;2.60;;;;;;;-145.18;100.00;60484.78;5085438;28;20028;-65
2021/08/24 05:50:16;;;;;;;7.63;3.20;;;;;;;-145.18;100.00;60484.78;5085286;28;20127;-65
2021/08/24 05:52:41;;;;;;;6.97;3.03;;;;;;;-145.18;100.00;60484.78;5085042;28;20031;-65
2021/08/24 05:55:08;;;;;;;10.93;3.00;;;;;;;-145.18;100.00;60484.78;5085196;28;20023;-65
2021/08/24 05:57:33;;;;;;;7.33;2.70;;;;;;;-145.18;100.00;60484.78;5085678;28;20527;-65
2021/08/24 05:59:59;;;;;;;6.67;3.10;;;;;;;-145.18;100.00;60484.78;5085120;28;20031;-66
2021/08/24 06:02:24;;;;;;;5.53;2.60;;;;;;;-145.18;100.00;60484.78;5084760;28;20153;-66
2021/08/24 06:04:50;;;;;;;6.20;2.70;;;;;;;-145.18;100.00;60484.78;5084848;28;20028;-67
2021/08/24 06:07:15;;;;;;;6.17;2.70;;;;;;;-145.18;100.00;60484.78;5084553;28;20687;-67
2021/08/24 06:09:41;;;;;;;8.63;2.70;;;;;;;-145.18;100.00;60484.78;5084424;28;20546;-68
2021/08/24 06:12:07;;;;;;;5.23;2.47;;;;;;;-145.18;100.00;60484.78;5084693;28;20031;-68
2021/08/24 06:14:32;;;;;;;6.00;2.40;;;;;;;-145.18;100.00;60484.78;5085054;28;20091;-67
2021/08/24 06:16:58;;;;;;;6.77;2.60;;;;;;;-145.18;100.00;60484.78;5084468;28;20113;-68
2021/08/24 06:19:25;;;;;;;5.55;2.58;;;;;;;-145.18;100.00;60484.78;5084929;28;20024;-67
2021/08/24 06:21:52;;;;;;;5.18;2.50;;;;;;;-145.18;100.00;60484.78;5084526;28;20039;-68
2021/08/24 06:24:17;;;;;;;4.88;2.30;;;;;;;-145.18;100.00;60484.78;5084789;28;20373;-67
2021/08/24 06:26:43;;;;;;;6.68;2.33;;;;;;;-145.18;100.00;60484.78;5084679;28;20031;-68
2021/08/24 06:29:09;;;;;;;4.72;2.38;;;;;;;-145.18;100.00;60484.78;5084568;28;20030;-67
2021/08/24 06:31:41;;;;;;;5.22;2.42;;;;;;;-145.18;100.00;60484.78;5084505;28;20107;-67
2021/08/24 06:34:08;;;;;;;6.45;2.63;;;;;;;-145.18;100.00;60484.78;5083899;28;20043;-68
2021/08/24 06:36:36;;;;;;;3.95;2.05;;;;;;;-145.18;100.00;60484.78;5084318;28;20271;-67
2021/08/24 06:39:03;;;;;;;5.00;2.10;;;;;;;-145.18;100.00;60484.78;5083986;28;20023;-67
2021/08/24 06:41:28;;;;;;;4.05;2.03;;;;;;;-145.18;100.00;60484.78;5084257;28;20020;-67
2021/08/24 06:43:53;;;;;;;3.83;1.70;;;;;;;-145.18;100.00;60484.78;5084207;28;20039;-67
2021/08/24 06:46:19;;;;;;;4.93;2.17;;;;;;;-145.18;100.00;60484.78;5084299;28;20099;-67
2021/08/24 06:48:45;;;;;;;5.35;2.17;;;;;;;-145.18;100.00;60484.78;5083685;28;20104;-68
2021/08/24 06:51:11;;;;;;;5.47;1.95;;;;;;;-145.18;100.00;60484.78;5084297;28;20059;-69
2021/08/24 06:53:40;;;;;;;6.35;2.00;;;;;;;-145.18;100.00;60484.78;5083867;28;20120;-67
2021/08/24 06:56:06;;;;;;;7.45;2.05;;;;;;;-145.18;100.00;60484.78;5084002;28;20043;-68
2021/08/24 06:58:32;;;;;;;4.35;1.85;;;;;;;-145.18;100.00;60484.78;5084173;28;20020;-67
2021/08/24 07:00:59;;;;;;;6.47;1.83;;;;;;;-145.18;100.00;60484.78;5084029;28;20408;-67
2021/08/24 07:03:24;;;;;;;4.25;1.88;;;;;;;-145.18;100.00;60484.78;5083566;28;20577;-67
2021/08/24 07:05:50;;;;;;;3.53;1.52;;;;;;;-145.18;100.00;60484.78;5083707;28;20105;-67
2021/08/24 07:08:16;;;;;;;4.13;1.60;;;;;;;-145.18;100.00;60484.78;5083894;28;20024;-67
2021/08/24 07:10:42;;;;;;;5.15;1.50;;;;;;;-145.18;100.00;60484.78;5083896;28;20015;-67
2021/08/24 07:13:07;;;;;;;4.38;1.50;;;;;;;-145.18;100.00;60484.78;5083966;28;20042;-67
2021/08/24 07:15:35;;;;;;;4.32;1.58;;;;;;;-145.18;100.00;60484.78;5083237;28;20044;-67
2021/08/24 07:18:01;;;;;;;3.90;1.70;;;;;;;-145.18;100.00;60484.78;5083621;28;20038;-67
2021/08/24 07:20:27;;;;;;;3.78;1.40;;;;;;;-145.18;100.00;60484.78;5083054;28;20020;-66
2021/08/24 07:22:52;;;;;;;3.78;1.80;;;;;;;-145.18;100.00;60484.78;5083734;28;20492;-66
2021/08/24 07:25:22;;;;;;;4.40;1.90;;;;;;;-145.18;100.00;60484.78;5082962;28;20038;-67
2021/08/24 07:27:47;;;;;;;4.28;1.70;;;;;;;-145.18;100.00;60484.78;5083393;28;20543;-66
2021/08/24 07:30:15;;;;;;;3.92;1.70;;;;;;;-145.18;100.00;60484.78;5083481;28;20039;-65
2021/08/24 07:32:41;;;;;;;3.80;1.58;;;;;;;-145.18;100.00;60484.78;5083536;28;20036;-65
2021/08/24 07:35:09;;;;;;;3.67;1.30;;;;;;;-145.18;100.00;60484.78;5082833;28;20024;-65
2021/08/24 07:37:34;;;;;;;8.07;1.30;;;;;;;-145.18;100.00;60484.78;5083189;28;20031;-66
2021/08/24 07:40:00;;;;;;;4.18;1.40;;;;;;;-145.18;100.00;60484.78;5083295;28;20031;-65
2021/08/24 07:42:26;;;;;;;2.75;1.35;;;;;;;-145.18;100.00;60484.78;5083265;28;20030;-65
2021/08/24 07:44:51;;;;;;;3.45;1.15;;;;;;;-145.18;100.00;60484.78;5082861;28;20434;-65
2021/08/24 07:47:17;;;;;;;3.03;1.33;;;;;;;-145.18;100.00;60484.78;5082942;28;20028;-65
2021/08/24 07:49:46;;;;;;;2.75;1.17;;;;;;;-145.18;100.00;60484.78;5083031;28;20377;-65
2021/08/24 07:52:12;;;;;;;3.17;1.10;;;;;;;-145.18;100.00;60484.78;5083181;28;20020;-66
2021/08/24 07:54:38;;;;;;;3.22;1.00;;;;;;;-145.18;100.00;60484.78;5082920;28;20411;-67
2021/08/24 07:57:04;;;;;;;3.92;1.10;;;;;;;-145.18;100.00;60484.78;5082540;28;20114;-67
2021/08/24 07:59:30;;;;;;;1.70;0.80;;;;;;;-145.18;100.00;60484.78;5069721;28;20032;-67
2021/08/24 08:01:55;;;;;;;2.45;0.85;;;;;;;-145.18;100.00;60484.78;5082693;28;20023;-67
2021/08/24 08:04:26;;;;;;;3.30;1.23;;;;;;;-145.18;100.00;60484.78;5082641;28;20023;-67
2021/08/24 08:06:52;;;;;;;2.67;0.90;;;;;;;-145.18;100.00;60484.78;5069038;28;20039;-67
2021/08/24 08:09:20;;;;;;;3.83;0.95;;;;;;;-145.18;100.00;60484.78;5082621;28;20272;-67
2021/08/24 08:11:46;;;;;;;4.30;1.00;;;;;;;-145.18;100.00;60484.78;5082743;28;20039;-67
2021/08/24 08:14:12;;;;;;;1.92;0.80;;;;;;;-145.18;100.00;60484.78;5082581;28;20404;-67
2021/08/24 08:16:38;;;;;;;2.50;0.90;;;;;;;-145.18;100.00;60484.78;5082064;28;20040;-67
2021/08/24 08:19:04;;;;;;;5.63;0.90;;;;;;;-145.18;100.00;60484.78;5082538;28;20073;-67
2021/08/24 08:21:32;;;;;;;3.40;1.15;;;;;;;-145.18;100.00;60484.78;5082450;28;20026;-67
2021/08/24 08:23:57;;;;;;;3.58;1.27;;;;;;;-145.18;100.00;60484.78;5082466;28;20480;-67
2021/08/24 08:26:23;;;;;;;2.38;0.80;;;;;;;-145.18;100.00;60484.78;5081319;28;20016;-67
2021/08/24 08:28:50;;;;;;;4.50;1.10;;;;;;;-145.18;100.00;60484.78;5082415;28;20027;-67
2021/08/24 08:31:17;;;;;;;2.13;0.80;;;;;;;-145.18;100.00;60484.78;5081511;28;20020;-67
2021/08/24 08:33:42;;;;;;;2.42;0.90;;;;;;;-145.18;100.00;60484.78;5082394;28;20024;-67
2021/08/24 08:36:08;;;;;;;3.10;1.13;;;;;;;-145.18;100.00;60484.78;5082283;28;20027;-67
2021/08/24 08:38:33;;;;;;;2.53;0.90;;;;;;;-145.18;100.00;60484.78;5082260;28;20051;-67
2021/08/24 08:41:27;;;;;;;3.13;0.85;;;;;;;-145.18;100.00;60484.78;5082320;28;20081;-67
2021/08/24 08:44:17;;;;;;;2.03;0.80;;;;;;;-145.18;100.00;60484.78;5080753;28;20736;-67
2021/08/24 08:47:26;;;;;;;2.83;0.93;;;;;;;-145.18;100.00;60484.78;5081833;28;20081;-67
2021/08/24 08:50:59;;;;;;;2.53;0.80;;;;;;;-145.18;100.00;60484.78;5026496;28;20814;-68
2021/08/24 08:53:53;;;;;;;3.33;0.88;;;;;;;-145.18;100.00;60484.78;4966937;28;20128;-67
2021/08/24 08:56:34;;;;;;;2.22;0.82;;;;;;;-145.18;100.00;60484.78;4999271;28;20030;-67
2021/08/24 08:59:14;;;;;;;2.05;0.70;;;;;;;-145.18;100.00;60484.78;4999061;28;20110;-67
2021/08/24 09:01:59;;;;;;;3.20;1.00;;;;;;;-145.18;100.00;60484.78;4999264;28;20034;-67
2021/08/24 09:04:41;;;;;;;2.53;0.80;;;;;;;-145.18;100.00;60484.78;4998891;28;20436;-68
2021/08/24 09:07:17;;;;;;;2.05;0.70;;;;;;;-145.18;100.00;60484.78;4988017;28;20694;-67
2021/08/24 09:09:43;;;;;;;2.88;0.82;;;;;;;-145.18;100.00;60484.78;4999439;28;20034;-67
2021/08/24 09:12:10;;;;;;;2.63;0.90;;;;;;;-145.18;100.00;60484.78;4999316;28;20053;-67
2021/08/24 09:14:46;;;;;;;3.42;1.00;;;;;;;-145.18;100.00;60484.78;4999210;28;20541;-67
2021/08/24 09:17:25;;;;;;;2.88;0.80;;;;;;;-145.18;100.00;60484.78;4999174;28;20593;-67
2021/08/24 09:20:16;;;;;;;2.55;0.85;;;;;;;-145.18;100.00;60484.78;4998984;28;20121;-67
2021/08/24 09:22:43;;;;;;;2.85;0.80;;;;;;;-145.18;100.00;60484.78;4989260;28;20392;-67
2021/08/24 09:25:15;;;;;;;3.08;0.80;;;;;;;-145.18;100.00;60484.78;4998930;28;20554;-67
2021/08/24 09:28:13;;;;;;;2.78;0.80;;;;;;;-145.18;100.00;60484.78;5067100;28;20039;-67
2021/08/24 09:30:42;;;;;;;2.22;0.70;;;;;;;-145.18;100.00;60484.78;5081959;28;20047;-67
2021/08/24 09:33:09;;;;;;;2.80;0.80;;;;;;;-145.18;100.00;60484.78;5081836;28;20019;-67
2021/08/24 09:35:37;;;;;;;1.52;0.60;;;;;;;-145.18;100.00;60484.78;5081868;28;20146;-66
2021/08/24 09:38:44;;;;;;;2.28;0.80;;;;;;;-145.18;100.00;60484.78;5081828;28;20024;-67
2021/08/24 09:41:23;;;;;;;1.77;0.70;;;;;;;-145.18;100.00;60484.78;4998913;28;20128;-67
2021/08/24 09:43:49;;;;;;;2.63;0.90;;;;;;;-145.18;100.00;60484.78;5002028;28;20030;-66
2021/08/24 09:46:36;;;;;;;2.50;0.80;;;;;;;-145.18;100.00;60484.78;5002332;28;20049;-67
2021/08/24 09:49:43;;;;;;;2.20;0.70;;;;;;;-145.18;100.00;60484.78;5002245;28;20122;-67
2021/08/24 09:52:21;;;;;;;2.03;0.60;;;;;;;-145.18;100.00;60484.78;5002426;28;20038;-66
2021/08/24 09:54:58;;;;;;;2.03;0.70;;;;;;;-145.18;100.00;60484.78;5002240;28;20034;-67
2021/08/24 09:57:49;;;;;;;2.90;0.98;;;;;;;-145.18;100.00;60484.78;5002324;28;20100;-67
2021/08/24 10:00:20;;;;;;;;;;;;;;;-145.18;100.00;60484.78;5002562;28;20029;-67
2021/08/24 10:03:00;;;;;;;2.45;0.93;;;;;;;-145.18;100.00;60484.78;5002446;28;19941;-66
2021/08/24 10:05:38;;;;;;;2.10;0.63;;;;;;;-145.18;100.00;60484.78;5002036;28;20088;-67
2021/08/24 10:08:28;;;;;;;2.38;0.70;;;;;;;-145.18;100.00;60484.78;5002233;28;20145;-67
2021/08/24 10:11:06;;;;;;;2.30;0.70;;;;;;;-145.18;100.00;60484.78;5001906;28;20045;-66
2021/08/24 10:13:41;;;;;;;3.05;1.10;;;;;;;-145.18;100.00;60484.78;5002227;28;20026;-66
2021/08/24 10:16:28;;;;;;;2.05;0.80;;;;;;;-145.18;100.00;60484.78;5001673;28;20607;-67
2021/08/24 10:19:18;;;;;;;2.75;0.93;;;;;;;-145.18;100.00;60484.78;5084803;28;20020;-68
2021/08/24 10:22:22;;;;;;;4.05;1.08;;;;;;;-145.18;100.00;60484.78;5084593;28;20095;-66
2021/08/24 10:25:01;;;;;;;2.45;0.80;;;;;;;-145.18;100.00;60484.78;5032525;28;20072;-66
2021/08/24 10:27:34;;;;;;;2.38;0.70;;;;;;;-145.18;100.00;60484.78;5083721;28;20023;-67
2021/08/24 10:30:08;;;;;;;2.95;0.90;;;;;;;-145.18;100.00;60484.78;5084374;28;20038;-68
2021/08/24 10:32:39;;;;;;;3.28;0.90;;;;;;;-145.18;100.00;60484.78;5084646;28;20183;-66
2021/08/24 10:35:17;;;;;;;3.00;0.82;;;;;;;-145.18;100.00;60484.78;5084361;28;20024;-66
2021/08/24 10:37:47;;;;;;;2.90;0.93;;;;;;;-145.18;100.00;60484.78;5084720;28;20032;-66
2021/08/24 10:40:23;;;;;;;4.00;1.17;;;;;;;-145.18;100.00;60484.78;5084293;28;20569;-66
2021/08/24 10:43:17;;;;;;;2.47;0.82;;;;;;;-145.18;100.00;60484.78;5084286;28;20024;-65
2021/08/24 10:46:04;;;;;;;2.85;0.80;;;;;;;-145.18;100.00;60484.78;5084076;28;20036;-66
2021/08/24 10:48:34;;;;;;;3.33;0.90;;;;;;;-145.18;100.00;60484.78;5084114;28;20020;-66
2021/08/24 10:51:51;;;;;;;2.60;0.80;;;;;;;-145.18;100.00;60484.78;5083855;28;20392;-66
2021/08/24 10:54:40;;;;;;;2.40;0.90;;;;;;;-145.18;100.00;60484.78;5010423;28;20168;-66
2021/08/24 10:57:45;;;;;;;3.08;1.00;;;;;;;-145.18;100.00;60484.78;5084179;28;20404;-66
2021/08/24 11:00:43;;;;;;;2.50;0.90;;;;;;;-145.18;100.00;60484.78;5000805;28;20072;-66
2021/08/24 11:03:44;;;;;;;2.45;0.93;;;;;;;-145.18;100.00;60484.78;4961614;28;20125;-66
2021/08/24 11:07:02;;;;;;;3.30;1.00;;;;;;;-145.18;100.00;60484.78;4956585;28;20054;-66
2021/08/24 11:10:32;;;;;;;2.65;1.00;;;;;;;-145.18;100.00;60484.78;4934650;29;20027;-66
2021/08/24 11:13:44;;;;;;;2.78;0.85;;;;;;;-145.18;100.00;60484.78;4864510;29;20085;-66
2021/08/24 11:16:56;;;;;;;2.13;0.73;;;;;;;-145.18;100.00;60484.78;4866563;29;20052;-67
2021/08/24 11:19:51;;;;;;;3.17;0.90;;;;;;;-145.18;100.00;60484.78;4811621;29;20050;-67
2021/08/24 11:23:03;;;;;;;3.35;1.00;;;;;;;-145.18;100.00;60484.78;4811441;29;20046;-66
2021/08/24 11:25:41;;;;;;;3.42;1.20;;;;;;;-145.18;100.00;60484.78;4786784;29;20105;-66
2021/08/24 11:28:35;;;;;;;3.50;1.02;;;;;;;-145.18;100.00;60484.78;4800478;29;20042;-66
2021/08/24 11:31:23;;;;;;;2.55;0.90;;;;;;;-145.18;100.00;60484.78;4811688;29;20050;-66
2021/08/24 11:34:38;;;;;;;3.08;1.00;;;;;;;-145.18;100.00;60484.78;4811431;29;20132;-66
2021/08/24 11:37:07;;;;;;;3.00;0.90;;;;;;;-145.18;100.00;60484.78;4775374;30;20553;-66